Time;durP1;ratioP1;P1;durP2;ratioP2;P2;SDS_P1;SDS_P2;PMS_P1;PMS_P2;Temp;Humidity;BMP_temperature;BMP_pressure;BME280_temperature;BME280_humidity;BME280_pressure;Samples;Min_cycle;Max_cycle;Signal;HPM_P1;HPM_P2
2024/01/14 00:00:16;;;;;;;19.27;11.53;;;;;;;;;;5100906;28;20465;-66
2024/01/14 00:02:43;;;;;;;28.67;12.20;;;;;;;;;;5100329;28;20460;-66
2024/01/14 00:05:10;;;;;;;20.17;10.70;;;;;;;;;;5095658;28;20482;-66
2024/01/14 00:07:37;;;;;;;24.10;12.83;;;;;;;;;;5090741;28;20545;-67
2024/01/14 00:10:03;;;;;;;19.93;10.57;;;;;;;;;;5097371;28;20735;-67
2024/01/14 00:12:30;;;;;;;25.10;12.73;;;;;;;;;;5100112;28;20471;-66
2024/01/14 00:14:56;;;;;;;31.50;14.87;;;;;;;;;;5094642;28;20479;-67
2024/01/14 00:17:23;;;;;;;28.90;14.50;;;;;;;;;;5101266;28;20545;-68
2024/01/14 00:19:50;;;;;;;27.80;14.27;;;;;;;;;;5095198;28;20533;-67
2024/01/14 00:22:19;;;;;;;31.63;14.70;;;;;;;;;;5091889;28;20474;-67
2024/01/14 00:24:45;;;;;;;30.60;14.93;;;;;;;;;;5098266;28;20511;-66
2024/01/14 00:27:12;;;;;;;30.27;14.60;;;;;;;;;;5095092;28;20446;-66
2024/01/14 00:29:39;;;;;;;31.50;15.87;;;;;;;;;;5095339;28;20841;-67
2024/01/14 00:32:06;;;;;;;42.63;17.93;;;;;;;;;;5089629;28;20512;-66
2024/01/14 00:34:33;;;;;;;33.17;16.47;;;;;;;;;;5084519;28;20500;-67
2024/01/14 00:36:59;;;;;;;34.83;16.53;;;;;;;;;;5094870;28;20456;-67
2024/01/14 00:39:27;;;;;;;31.50;16.10;;;;;;;;;;5093866;28;20522;-67
2024/01/14 00:41:54;;;;;;;34.93;15.90;;;;;;;;;;5093610;28;20513;-67
2024/01/14 00:44:20;;;;;;;36.43;15.93;;;;;;;;;;5096427;28;20873;-67
2024/01/14 00:46:47;;;;;;;28.60;16.53;;;;;;;;;;5093196;28;20946;-67
2024/01/14 00:49:13;;;;;;;37.80;16.60;;;;;;;;;;5088722;28;21739;-67
2024/01/14 00:51:40;;;;;;;38.03;17.23;;;;;;;;;;5100646;28;20746;-67
2024/01/14 00:54:06;;;;;;;33.17;16.93;;;;;;;;;;5095427;28;20489;-67
2024/01/14 00:56:34;;;;;;;39.50;16.87;;;;;;;;;;5086959;28;20477;-66
2024/01/14 00:59:00;;;;;;;30.50;16.03;;;;;;;;;;5095472;28;20470;-65
2024/01/14 01:01:27;;;;;;;37.23;16.87;;;;;;;;;;5092883;28;20459;-67
2024/01/14 01:03:53;;;;;;;37.13;18.13;;;;;;;;;;5100327;28;20485;-67
2024/01/14 01:06:19;;;;;;;29.63;16.43;;;;;;;;;;5095589;28;20481;-67
2024/01/14 01:08:46;;;;;;;30.97;14.93;;;;;;;;;;5096101;28;20463;-67
2024/01/14 01:11:15;;;;;;;27.87;14.70;;;;;;;;;;5098079;28;20555;-68
2024/01/14 01:13:43;;;;;;;30.10;15.20;;;;;;;;;;5098886;28;20504;-67
2024/01/14 01:16:09;;;;;;;28.43;13.70;;;;;;;;;;5090969;28;20530;-67
2024/01/14 01:18:36;;;;;;;22.40;11.43;;;;;;;;;;5107610;28;20449;-65
2024/01/14 01:21:02;;;;;;;22.87;12.83;;;;;;;;;;5095361;28;20447;-67
2024/01/14 01:23:28;;;;;;;23.23;12.57;;;;;;;;;;5089335;28;20487;-67
2024/01/14 01:25:55;;;;;;;26.03;12.90;;;;;;;;;;5090125;28;20881;-67
2024/01/14 01:28:22;;;;;;;23.43;12.30;;;;;;;;;;5091747;28;20558;-67
2024/01/14 01:30:50;;;;;;;25.57;11.97;;;;;;;;;;5099984;28;20475;-67
2024/01/14 01:33:16;;;;;;;23.13;12.30;;;;;;;;;;5104559;28;20479;-67
2024/01/14 01:35:42;;;;;;;24.63;12.50;;;;;;;;;;5096976;28;20447;-67
2024/01/14 01:38:09;;;;;;;23.67;13.50;;;;;;;;;;5090856;28;20487;-67
2024/01/14 01:40:35;;;;;;;17.50;10.93;;;;;;;;;;5097416;28;20474;-67
2024/01/14 01:43:02;;;;;;;21.20;12.13;;;;;;;;;;5097716;28;20519;-65
2024/01/14 01:45:28;;;;;;;20.60;13.03;;;;;;;;;;5094742;28;20488;-66
2024/01/14 01:47:56;;;;;;;28.43;14.40;;;;;;;;;;5097018;28;20450;-66
2024/01/14 01:50:22;;;;;;;31.33;15.73;;;;;;;;;;5102224;28;20541;-67
2024/01/14 01:52:49;;;;;;;35.50;15.57;;;;;;;;;;5099239;28;20486;-67
2024/01/14 01:55:16;;;;;;;32.97;15.03;;;;;;;;;;5094624;28;20458;-67
2024/01/14 01:57:42;;;;;;;33.00;16.50;;;;;;;;;;5094651;28;20447;-68
2024/01/14 02:00:09;;;;;;;33.20;16.37;;;;;;;;;;5087599;28;20503;-67
2024/01/14 02:02:36;;;;;;;38.57;16.93;;;;;;;;;;5097675;28;20520;-67
2024/01/14 02:05:06;;;;;;;40.20;18.17;;;;;;;;;;5088549;28;20483;-66
2024/01/14 02:07:33;;;;;;;43.50;19.37;;;;;;;;;;5087283;28;20454;-67
2024/01/14 02:09:59;;;;;;;34.20;17.73;;;;;;;;;;5095467;28;20489;-67
2024/01/14 02:12:26;;;;;;;33.73;18.50;;;;;;;;;;5093780;28;20541;-68
2024/01/14 02:14:52;;;;;;;36.83;16.17;;;;;;;;;;5094588;28;20447;-66
2024/01/14 02:17:18;;;;;;;35.33;17.00;;;;;;;;;;5102842;28;20460;-67
2024/01/14 02:19:45;;;;;;;39.30;18.43;;;;;;;;;;5101369;28;20475;-67
2024/01/14 02:22:15;;;;;;;32.60;16.63;;;;;;;;;;5092578;28;20543;-67
2024/01/14 02:24:43;;;;;;;36.43;16.57;;;;;;;;;;5086344;28;20529;-67
2024/01/14 02:27:09;;;;;;;33.03;14.17;;;;;;;;;;5093481;28;20467;-67
2024/01/14 02:29:36;;;;;;;27.20;15.07;;;;;;;;;;5103396;28;20522;-67
2024/01/14 02:32:03;;;;;;;28.70;15.10;;;;;;;;;;5103931;28;20489;-67
2024/01/14 02:34:29;;;;;;;33.73;15.50;;;;;;;;;;5090649;28;20454;-67
2024/01/14 02:36:56;;;;;;;32.10;14.30;;;;;;;;;;5094147;28;20486;-67
2024/01/14 02:39:22;;;;;;;30.67;14.67;;;;;;;;;;5093965;28;20505;-66
2024/01/14 02:41:50;;;;;;;34.20;17.00;;;;;;;;;;5089040;28;20459;-67
2024/01/14 02:44:17;;;;;;;37.43;17.37;;;;;;;;;;5094703;28;20491;-68
2024/01/14 02:46:43;;;;;;;29.40;16.33;;;;;;;;;;5089291;28;20453;-66
2024/01/14 02:49:09;;;;;;;29.60;15.70;;;;;;;;;;5093945;28;20550;-67
2024/01/14 02:51:36;;;;;;;36.43;17.50;;;;;;;;;;5098456;28;21034;-68
2024/01/14 02:54:02;;;;;;;32.70;17.50;;;;;;;;;;5095485;28;20512;-68
2024/01/14 02:56:29;;;;;;;36.03;17.33;;;;;;;;;;5089204;28;20899;-68
2024/01/14 02:58:57;;;;;;;33.03;17.53;;;;;;;;;;5098160;28;20460;-68
2024/01/14 03:01:23;;;;;;;32.33;17.47;;;;;;;;;;5093913;28;20429;-68
2024/01/14 03:03:50;;;;;;;35.10;16.10;;;;;;;;;;5091119;28;20503;-68
2024/01/14 03:06:16;;;;;;;31.93;16.47;;;;;;;;;;5089458;28;20492;-68
2024/01/14 03:08:43;;;;;;;39.40;15.30;;;;;;;;;;5095392;28;20507;-67
2024/01/14 03:11:09;;;;;;;31.80;15.37;;;;;;;;;;5090804;28;20451;-67
2024/01/14 03:13:35;;;;;;;29.13;14.43;;;;;;;;;;5097598;28;20503;-67
2024/01/14 03:16:03;;;;;;;33.40;15.83;;;;;;;;;;5090970;28;21016;-67
2024/01/14 03:18:30;;;;;;;31.40;15.33;;;;;;;;;;5096612;28;21000;-67
2024/01/14 03:20:56;;;;;;;30.70;13.27;;;;;;;;;;5095161;28;20555;-66
2024/01/14 03:23:22;;;;;;;26.10;13.53;;;;;;;;;;5095082;28;20486;-67
2024/01/14 03:25:49;;;;;;;30.83;15.10;;;;;;;;;;5102565;28;20573;-67
2024/01/14 03:28:15;;;;;;;25.33;12.80;;;;;;;;;;5088689;28;20448;-67
2024/01/14 03:30:44;;;;;;;26.50;14.40;;;;;;;;;;5101027;28;20542;-67
2024/01/14 03:33:11;;;;;;;29.37;13.97;;;;;;;;;;5089518;28;20464;-67
2024/01/14 03:35:38;;;;;;;24.53;14.33;;;;;;;;;;5089911;28;20487;-65
2024/01/14 03:38:04;;;;;;;31.20;15.83;;;;;;;;;;5090244;28;20483;-66
2024/01/14 03:40:31;;;;;;;27.33;13.43;;;;;;;;;;5095239;28;20887;-66
2024/01/14 03:42:57;;;;;;;33.83;14.00;;;;;;;;;;5092996;28;20482;-66
2024/01/14 03:45:23;;;;;;;30.53;15.10;;;;;;;;;;5093941;28;20895;-67
2024/01/14 03:47:50;;;;;;;30.80;14.30;;;;;;;;;;5100716;28;20483;-67
2024/01/14 03:50:17;;;;;;;26.50;14.03;;;;;;;;;;5110251;28;20613;-66
2024/01/14 03:52:44;;;;;;;27.50;12.63;;;;;;;;;;5108670;28;20478;-67
2024/01/14 03:55:10;;;;;;;24.60;13.60;;;;;;;;;;5099705;28;20570;-67
2024/01/14 03:57:37;;;;;;;29.23;13.47;;;;;;;;;;5106840;28;20485;-67
2024/01/14 04:00:04;;;;;;;28.50;12.93;;;;;;;;;;5095373;28;21074;-66
2024/01/14 04:02:30;;;;;;;34.67;15.20;;;;;;;;;;5101508;28;20447;-67
2024/01/14 04:04:56;;;;;;;35.97;16.50;;;;;;;;;;5099492;28;20550;-67
2024/01/14 04:07:24;;;;;;;35.83;15.33;;;;;;;;;;5105029;28;20477;-68
2024/01/14 04:09:50;;;;;;;34.83;15.60;;;;;;;;;;5103908;28;20478;-67
2024/01/14 04:12:17;;;;;;;29.63;15.90;;;;;;;;;;5103381;28;20485;-67
2024/01/14 04:14:44;;;;;;;32.90;15.80;;;;;;;;;;5094700;28;20482;-67
2024/01/14 04:17:11;;;;;;;36.87;15.20;;;;;;;;;;5099262;28;20479;-65
2024/01/14 04:19:38;;;;;;;30.30;14.93;;;;;;;;;;5098914;28;20462;-67
2024/01/14 04:22:04;;;;;;;33.97;15.27;;;;;;;;;;5093961;28;20515;-67
2024/01/14 04:24:32;;;;;;;34.27;14.93;;;;;;;;;;5099204;28;20514;-67
2024/01/14 04:26:58;;;;;;;31.03;15.47;;;;;;;;;;5094171;28;20543;-67
2024/01/14 04:29:25;;;;;;;30.50;15.00;;;;;;;;;;5101863;28;20443;-67
2024/01/14 04:31:51;;;;;;;32.77;14.17;;;;;;;;;;5095852;28;20544;-67
2024/01/14 04:34:18;;;;;;;29.90;14.90;;;;;;;;;;5099941;28;20563;-67
2024/01/14 04:36:44;;;;;;;29.93;14.50;;;;;;;;;;5107806;28;20476;-67
2024/01/14 04:39:10;;;;;;;30.50;15.70;;;;;;;;;;5098398;28;20536;-67
2024/01/14 04:41:38;;;;;;;28.20;13.90;;;;;;;;;;5094609;28;20478;-67
2024/01/14 04:44:05;;;;;;;29.17;14.63;;;;;;;;;;5097992;28;20480;-67
2024/01/14 04:46:31;;;;;;;32.13;14.73;;;;;;;;;;5096410;28;20514;-66
2024/01/14 04:48:58;;;;;;;27.13;14.10;;;;;;;;;;5095741;28;20460;-67
2024/01/14 04:51:24;;;;;;;31.87;14.97;;;;;;;;;;5091788;28;20448;-67
2024/01/14 04:53:50;;;;;;;27.10;13.17;;;;;;;;;;5088621;28;20555;-67
2024/01/14 04:56:17;;;;;;;29.50;14.53;;;;;;;;;;5091740;28;20872;-67
2024/01/14 04:58:45;;;;;;;29.80;15.60;;;;;;;;;;5102010;28;20504;-67
2024/01/14 05:01:11;;;;;;;40.10;16.83;;;;;;;;;;5092108;28;20447;-67
2024/01/14 05:03:38;;;;;;;36.10;18.10;;;;;;;;;;5102267;28;20505;-67
2024/01/14 05:06:05;;;;;;;39.10;16.53;;;;;;;;;;5089546;28;20547;-67
2024/01/14 05:08:31;;;;;;;35.60;16.63;;;;;;;;;;5091682;28;20493;-67
2024/01/14 05:10:59;;;;;;;41.23;16.83;;;;;;;;;;5093844;28;20507;-67
2024/01/14 05:13:25;;;;;;;41.53;16.97;;;;;;;;;;5094020;28;20482;-67
2024/01/14 05:15:53;;;;;;;37.67;16.37;;;;;;;;;;5096199;28;20474;-66
2024/01/14 05:18:20;;;;;;;40.73;18.67;;;;;;;;;;5094564;28;20456;-66
2024/01/14 05:20:46;;;;;;;40.13;18.10;;;;;;;;;;5094730;28;20539;-67
2024/01/14 05:23:12;;;;;;;37.10;18.60;;;;;;;;;;5107695;28;20509;-67
2024/01/14 05:25:39;;;;;;;36.23;16.47;;;;;;;;;;5088660;28;20578;-66
2024/01/14 05:28:05;;;;;;;38.00;17.87;;;;;;;;;;5103583;28;20525;-66
2024/01/14 05:30:32;;;;;;;34.90;17.73;;;;;;;;;;5099851;28;21680;-66
2024/01/14 05:33:01;;;;;;;40.73;17.63;;;;;;;;;;5088630;28;20504;-67
2024/01/14 05:35:27;;;;;;;37.77;16.70;;;;;;;;;;5095906;28;20574;-67
2024/01/14 05:37:54;;;;;;;35.90;16.93;;;;;;;;;;5091212;28;20528;-67
2024/01/14 05:40:20;;;;;;;37.80;18.10;;;;;;;;;;5095067;28;20450;-67
2024/01/14 05:42:47;;;;;;;33.53;16.43;;;;;;;;;;5102760;28;20973;-66
2024/01/14 05:45:13;;;;;;;35.27;16.47;;;;;;;;;;5088955;28;20510;-66
2024/01/14 05:47:39;;;;;;;35.60;16.43;;;;;;;;;;5094263;28;20468;-66
2024/01/14 05:50:08;;;;;;;34.20;15.30;;;;;;;;;;5090989;28;20526;-66
2024/01/14 05:52:34;;;;;;;39.37;17.93;;;;;;;;;;5090064;28;20563;-67
2024/01/14 05:55:01;;;;;;;37.50;17.60;;;;;;;;;;5098045;28;20549;-66
2024/01/14 05:57:27;;;;;;;41.00;17.90;;;;;;;;;;5090289;28;20469;-68
2024/01/14 05:59:54;;;;;;;34.30;16.70;;;;;;;;;;5098371;28;20518;-67
2024/01/14 06:02:20;;;;;;;33.20;16.10;;;;;;;;;;5096547;28;20447;-67
2024/01/14 06:04:47;;;;;;;36.40;15.80;;;;;;;;;;5093669;28;20479;-67
2024/01/14 06:07:14;;;;;;;45.63;17.20;;;;;;;;;;5092433;28;20521;-67
2024/01/14 06:09:41;;;;;;;33.43;16.10;;;;;;;;;;5093448;28;20485;-67
2024/01/14 06:12:07;;;;;;;25.33;13.63;;;;;;;;;;5091880;28;20531;-67
2024/01/14 06:14:34;;;;;;;22.60;14.10;;;;;;;;;;5085868;28;20539;-67
2024/01/14 06:17:00;;;;;;;25.87;12.57;;;;;;;;;;5097234;28;20581;-68
2024/01/14 06:19:26;;;;;;;27.07;12.90;;;;;;;;;;5089917;28;20466;-68
2024/01/14 06:21:53;;;;;;;24.67;12.43;;;;;;;;;;5091932;28;20535;-67
2024/01/14 06:24:20;;;;;;;23.00;11.30;;;;;;;;;;5094255;28;20543;-67
2024/01/14 06:26:47;;;;;;;26.10;11.20;;;;;;;;;;5091242;28;20525;-67
2024/01/14 06:29:13;;;;;;;25.33;12.20;;;;;;;;;;5101861;28;20458;-66
2024/01/14 06:31:44;;;;;;;22.57;11.20;;;;;;;;;;5098253;28;20495;-67
2024/01/14 06:34:10;;;;;;;26.67;11.63;;;;;;;;;;5092611;28;20982;-67
2024/01/14 06:36:36;;;;;;;19.30;11.00;;;;;;;;;;5093686;28;20475;-67
2024/01/14 06:39:05;;;;;;;27.60;12.33;;;;;;;;;;5101778;28;20529;-67
2024/01/14 06:41:33;;;;;;;30.73;14.63;;;;;;;;;;5094220;28;20454;-67
2024/01/14 06:43:59;;;;;;;26.37;13.50;;;;;;;;;;5095891;28;20494;-67
2024/01/14 06:46:26;;;;;;;26.60;14.13;;;;;;;;;;5091540;28;20897;-68
2024/01/14 06:48:52;;;;;;;27.30;13.60;;;;;;;;;;5094362;28;21197;-68
2024/01/14 06:51:22;;;;;;;26.90;13.83;;;;;;;;;;5098443;28;20462;-68
2024/01/14 06:53:48;;;;;;;23.07;12.80;;;;;;;;;;5089322;28;20454;-67
2024/01/14 06:56:16;;;;;;;21.23;12.60;;;;;;;;;;5086530;28;20539;-67
2024/01/14 06:58:44;;;;;;;25.47;13.23;;;;;;;;;;5089754;28;20451;-68
2024/01/14 07:01:10;;;;;;;30.10;12.97;;;;;;;;;;5091353;28;20486;-67
2024/01/14 07:03:36;;;;;;;27.33;13.30;;;;;;;;;;5095078;28;20528;-67
2024/01/14 07:06:04;;;;;;;34.37;16.50;;;;;;;;;;5090137;28;20530;-68
2024/01/14 07:08:31;;;;;;;30.37;14.37;;;;;;;;;;5089495;28;20451;-67
2024/01/14 07:11:00;;;;;;;35.63;14.67;;;;;;;;;;5092339;28;20448;-67
2024/01/14 07:13:26;;;;;;;30.07;14.57;;;;;;;;;;5086693;28;20447;-66
2024/01/14 07:15:54;;;;;;;28.93;13.00;;;;;;;;;;5090048;28;20478;-67
2024/01/14 07:18:21;;;;;;;24.03;11.90;;;;;;;;;;5096229;28;20570;-67
2024/01/14 07:20:47;;;;;;;27.10;12.90;;;;;;;;;;5099745;28;20510;-67
2024/01/14 07:23:14;;;;;;;26.93;12.20;;;;;;;;;;5092727;28;20527;-67
2024/01/14 07:25:40;;;;;;;26.10;12.40;;;;;;;;;;5094865;28;20482;-67
2024/01/14 07:28:07;;;;;;;23.37;12.83;;;;;;;;;;5091602;28;21026;-67
2024/01/14 07:30:33;;;;;;;22.90;11.80;;;;;;;;;;5093540;28;20512;-67
2024/01/14 07:33:01;;;;;;;27.93;13.00;;;;;;;;;;5096072;28;20470;-68
2024/01/14 07:35:27;;;;;;;25.70;14.00;;;;;;;;;;5092427;28;20463;-65
2024/01/14 07:37:54;;;;;;;25.00;12.60;;;;;;;;;;5092963;28;20522;-68
2024/01/14 07:40:20;;;;;;;27.50;13.57;;;;;;;;;;5092869;28;20490;-67
2024/01/14 07:42:47;;;;;;;28.40;13.80;;;;;;;;;;5093937;28;21016;-67
2024/01/14 07:45:13;;;;;;;29.10;13.80;;;;;;;;;;5099524;28;20511;-68
2024/01/14 07:47:39;;;;;;;31.20;13.40;;;;;;;;;;5096856;28;20538;-66
2024/01/14 07:50:08;;;;;;;24.57;11.50;;;;;;;;;;5095945;28;20579;-67
2024/01/14 07:52:34;;;;;;;24.50;12.10;;;;;;;;;;5086092;28;20462;-67
2024/01/14 07:55:01;;;;;;;25.87;14.07;;;;;;;;;;5092821;28;20526;-68
2024/01/14 07:57:27;;;;;;;22.10;11.43;;;;;;;;;;5089364;28;20483;-67
2024/01/14 07:59:53;;;;;;;22.23;12.23;;;;;;;;;;5084851;28;20483;-67
2024/01/14 08:02:20;;;;;;;19.90;12.53;;;;;;;;;;5085982;28;20523;-67
2024/01/14 08:04:46;;;;;;;25.07;12.80;;;;;;;;;;5087052;28;20451;-66
2024/01/14 08:07:14;;;;;;;21.50;11.53;;;;;;;;;;5088727;28;20483;-66
2024/01/14 08:09:42;;;;;;;24.67;12.33;;;;;;;;;;5094353;28;20510;-67
2024/01/14 08:12:08;;;;;;;28.53;13.30;;;;;;;;;;5092360;28;20456;-68
2024/01/14 08:14:35;;;;;;;24.10;14.17;;;;;;;;;;5095244;28;20513;-67
2024/01/14 08:17:01;;;;;;;25.80;14.87;;;;;;;;;;5094515;28;20461;-66
2024/01/14 08:19:27;;;;;;;27.03;13.67;;;;;;;;;;5091987;28;20493;-67
2024/01/14 08:21:54;;;;;;;33.83;15.57;;;;;;;;;;5090421;28;20501;-67
2024/01/14 08:24:22;;;;;;;33.73;16.20;;;;;;;;;;5091129;28;20962;-69
2024/01/14 08:26:49;;;;;;;32.27;15.37;;;;;;;;;;5090875;28;20514;-68
2024/01/14 08:29:16;;;;;;;29.07;12.63;;;;;;;;;;5092174;28;20500;-67
2024/01/14 08:31:43;;;;;;;29.93;14.10;;;;;;;;;;5094244;28;20447;-68
2024/01/14 08:34:09;;;;;;;32.00;15.43;;;;;;;;;;5089734;28;20982;-67
2024/01/14 08:36:36;;;;;;;43.73;15.87;;;;;;;;;;5093002;28;20723;-68
2024/01/14 08:39:02;;;;;;;34.37;16.57;;;;;;;;;;5094399;28;20531;-69
2024/01/14 08:41:30;;;;;;;32.37;16.80;;;;;;;;;;5097979;28;20444;-72
2024/01/14 08:43:59;;;;;;;31.77;15.03;;;;;;;;;;5089979;28;20459;-69
2024/01/14 08:46:25;;;;;;;26.17;13.77;;;;;;;;;;5088300;28;20491;-72
2024/01/14 08:48:52;;;;;;;32.67;14.50;;;;;;;;;;5090870;28;20443;-69
2024/01/14 08:51:18;;;;;;;30.83;13.57;;;;;;;;;;5092913;28;20447;-71
2024/01/14 08:53:45;;;;;;;31.13;14.90;;;;;;;;;;5092194;28;20869;-72
2024/01/14 08:56:11;;;;;;;31.07;14.40;;;;;;;;;;5098578;28;20459;-72
2024/01/14 08:58:39;;;;;;;31.30;15.30;;;;;;;;;;5098937;28;20477;-70
2024/01/14 09:01:05;;;;;;;32.60;16.47;;;;;;;;;;5095295;28;20478;-72
2024/01/14 09:03:32;;;;;;;33.90;16.87;;;;;;;;;;5096002;28;20454;-72
2024/01/14 09:05:58;;;;;;;30.43;15.93;;;;;;;;;;5098224;28;20454;-70
2024/01/14 09:08:25;;;;;;;39.90;17.30;;;;;;;;;;5098427;28;20542;-69
2024/01/14 09:10:51;;;;;;;37.83;17.10;;;;;;;;;;5098058;28;20465;-71
2024/01/14 09:13:18;;;;;;;37.50;17.93;;;;;;;;;;5098499;28;20936;-70
2024/01/14 09:15:45;;;;;;;38.67;17.30;;;;;;;;;;5091935;28;20462;-72
2024/01/14 09:18:12;;;;;;;37.23;17.57;;;;;;;;;;5092776;28;20483;-69
2024/01/14 09:20:38;;;;;;;41.00;19.37;;;;;;;;;;5091374;28;21205;-69
2024/01/14 09:23:05;;;;;;;45.97;19.17;;;;;;;;;;5090606;28;20535;-70
2024/01/14 09:25:31;;;;;;;40.00;17.67;;;;;;;;;;5087009;28;20961;-70
2024/01/14 09:27:57;;;;;;;36.77;19.60;;;;;;;;;;5090688;28;20585;-72
2024/01/14 09:30:24;;;;;;;40.60;17.83;;;;;;;;;;5086784;28;20470;-74
2024/01/14 09:32:52;;;;;;;47.00;19.40;;;;;;;;;;5093527;28;20593;-73
2024/01/14 09:35:18;;;;;;;37.47;17.80;;;;;;;;;;5090331;28;20503;-72
2024/01/14 09:37:45;;;;;;;34.87;15.47;;;;;;;;;;5095535;28;20447;-72
2024/01/14 09:40:11;;;;;;;33.53;16.03;;;;;;;;;;5089117;28;20532;-73
2024/01/14 09:42:40;;;;;;;29.17;15.30;;;;;;;;;;5088003;28;20502;-70
2024/01/14 09:45:06;;;;;;;28.57;15.13;;;;;;;;;;5089737;28;20448;-74
2024/01/14 09:47:33;;;;;;;37.43;15.43;;;;;;;;;;5085539;28;20557;-72
2024/01/14 09:50:01;;;;;;;27.50;14.00;;;;;;;;;;5086343;28;20483;-75
2024/01/14 09:52:28;;;;;;;33.80;15.80;;;;;;;;;;5088103;28;20487;-70
2024/01/14 09:54:55;;;;;;;34.33;16.47;;;;;;;;;;5084228;28;20554;-70
2024/01/14 09:57:21;;;;;;;33.00;16.10;;;;;;;;;;5087186;28;20479;-71
2024/01/14 09:59:49;;;;;;;23.70;11.70;;;;;;;;;;5087382;28;20448;-71
2024/01/14 10:02:15;;;;;;;29.63;14.30;;;;;;;;;;5093017;28;20517;-73
2024/01/14 10:04:42;;;;;;;30.97;15.77;;;;;;;;;;5092366;28;20478;-68
2024/01/14 10:07:10;;;;;;;31.57;17.10;;;;;;;;;;5093970;28;20482;-72
2024/01/14 10:09:39;;;;;;;34.80;15.53;;;;;;;;;;5086914;28;20478;-72
2024/01/14 10:12:08;;;;;;;29.33;16.27;;;;;;;;;;5088428;28;20621;-72
2024/01/14 10:14:35;;;;;;;36.63;15.80;;;;;;;;;;5086223;28;20500;-69
2024/01/14 10:17:01;;;;;;;30.33;16.00;;;;;;;;;;5088661;28;20498;-72
2024/01/14 10:19:27;;;;;;;40.87;17.50;;;;;;;;;;5089666;28;20473;-72
2024/01/14 10:21:55;;;;;;;33.17;15.70;;;;;;;;;;5092876;28;20451;-72
2024/01/14 10:24:23;;;;;;;31.73;16.10;;;;;;;;;;5091345;28;20543;-70
2024/01/14 10:26:51;;;;;;;32.90;17.10;;;;;;;;;;5090912;28;20525;-70
2024/01/14 10:29:19;;;;;;;31.73;16.27;;;;;;;;;;5093452;28;20463;-69
2024/01/14 10:31:45;;;;;;;36.17;19.50;;;;;;;;;;5094855;28;20455;-70
2024/01/14 10:34:11;;;;;;;39.20;18.20;;;;;;;;;;5090130;28;20514;-70
2024/01/14 10:36:38;;;;;;;40.00;17.87;;;;;;;;;;5086876;28;20464;-70
2024/01/14 10:39:07;;;;;;;37.97;18.90;;;;;;;;;;5082691;28;20555;-71
2024/01/14 10:41:35;;;;;;;38.23;16.13;;;;;;;;;;5084889;28;20447;-69
2024/01/14 10:44:01;;;;;;;33.33;16.43;;;;;;;;;;5084003;28;20443;-70
2024/01/14 10:46:34;;;;;;;29.33;16.00;;;;;;;;;;5085853;28;21216;-70
2024/01/14 10:49:08;;;;;;;26.00;14.70;;;;;;;;;;5085664;28;21125;-68
2024/01/14 10:51:41;;;;;;;28.90;13.50;;;;;;;;;;5089047;28;20594;-70
2024/01/14 10:54:11;;;;;;;25.83;14.17;;;;;;;;;;5089538;28;20494;-69
2024/01/14 10:56:41;;;;;;;23.40;12.63;;;;;;;;;;5092425;28;20439;-70
2024/01/14 10:59:09;;;;;;;18.83;10.73;;;;;;;;;;5098635;28;20482;-70
2024/01/14 11:01:37;;;;;;;22.40;10.10;;;;;;;;;;5092747;28;20444;-68
2024/01/14 11:04:04;;;;;;;15.30;9.27;;;;;;;;;;5096005;28;20839;-64
2024/01/14 11:06:31;;;;;;;18.00;10.43;;;;;;;;;;5091600;28;20482;-74
2024/01/14 11:08:57;;;;;;;22.00;10.57;;;;;;;;;;5081983;28;20451;-69
2024/01/14 11:11:27;;;;;;;23.67;11.53;;;;;;;;;;5089023;28;20511;-67
2024/01/14 11:13:59;;;;;;;22.40;12.20;;;;;;;;;;5084603;28;20542;-68
2024/01/14 11:16:32;;;;;;;21.37;12.00;;;;;;;;;;5085377;28;20882;-67
2024/01/14 11:19:00;;;;;;;19.07;11.40;;;;;;;;;;5084233;28;20464;-68
2024/01/14 11:21:31;;;;;;;20.10;10.97;;;;;;;;;;5083276;28;20448;-71
2024/01/14 11:23:57;;;;;;;19.23;9.93;;;;;;;;;;5083864;28;20456;-71
2024/01/14 11:26:24;;;;;;;18.57;9.27;;;;;;;;;;5091085;28;20483;-69
2024/01/14 11:28:53;;;;;;;21.03;10.87;;;;;;;;;;5086947;28;21020;-70
2024/01/14 11:31:20;;;;;;;16.60;9.97;;;;;;;;;;5083616;28;20467;-70
2024/01/14 11:33:48;;;;;;;18.43;10.57;;;;;;;;;;5087039;28;20888;-68
2024/01/14 11:36:34;;;;;;;14.43;8.50;;;;;;;;;;5088004;28;20481;-67
2024/01/14 11:39:05;;;;;;;15.70;9.90;;;;;;;;;;5085528;28;20522;-68
2024/01/14 11:41:33;;;;;;;15.40;8.97;;;;;;;;;;5089902;28;20703;-68
2024/01/14 11:44:03;;;;;;;14.30;8.93;;;;;;;;;;5087960;28;20497;-69
2024/01/14 11:46:39;;;;;;;11.63;7.63;;;;;;;;;;5094855;28;20479;-67
2024/01/14 11:49:08;;;;;;;15.10;8.10;;;;;;;;;;5093572;28;20514;-68
2024/01/14 11:51:37;;;;;;;15.47;8.37;;;;;;;;;;5085053;28;20928;-66
2024/01/14 11:54:08;;;;;;;16.07;9.50;;;;;;;;;;5083795;28;20455;-68
2024/01/14 11:56:35;;;;;;;20.87;11.43;;;;;;;;;;5089049;28;20903;-67
2024/01/14 11:59:06;;;;;;;26.83;13.03;;;;;;;;;;5085809;28;20470;-68
2024/01/14 12:01:33;;;;;;;27.13;15.03;;;;;;;;;;5087969;28;20450;-68
2024/01/14 12:04:04;;;;;;;26.10;12.73;;;;;;;;;;5084792;28;20524;-69
2024/01/14 12:06:37;;;;;;;35.10;14.50;;;;;;;;;;5084657;28;20502;-68
2024/01/14 12:09:04;;;;;;;24.13;12.87;;;;;;;;;;5085396;28;20518;-68
2024/01/14 12:11:31;;;;;;;23.10;12.67;;;;;;;;;;5085861;28;20485;-68
2024/01/14 12:13:57;;;;;;;23.77;11.80;;;;;;;;;;5085193;28;21046;-67
2024/01/14 12:16:23;;;;;;;21.43;11.60;;;;;;;;;;5084636;28;20458;-68
2024/01/14 12:18:50;;;;;;;19.17;10.53;;;;;;;;;;5088357;28;20478;-68
2024/01/14 12:21:19;;;;;;;19.57;10.17;;;;;;;;;;5093474;28;20442;-67
2024/01/14 12:23:45;;;;;;;21.20;12.23;;;;;;;;;;5090717;28;20834;-68
2024/01/14 12:26:12;;;;;;;14.90;9.70;;;;;;;;;;5075793;28;20490;-68
2024/01/14 12:28:39;;;;;;;21.30;11.63;;;;;;;;;;5087116;28;20507;-68
2024/01/14 12:31:05;;;;;;;18.90;11.37;;;;;;;;;;5087654;28;20541;-66
2024/01/14 12:33:33;;;;;;;20.60;11.83;;;;;;;;;;5087831;28;20820;-65
2024/01/14 12:35:59;;;;;;;19.33;11.60;;;;;;;;;;5088061;28;21014;-65
2024/01/14 12:38:27;;;;;;;19.57;11.27;;;;;;;;;;5087484;28;20498;-66
2024/01/14 12:40:54;;;;;;;25.10;13.10;;;;;;;;;;5089897;28;20480;-66
2024/01/14 12:43:21;;;;;;;22.27;13.00;;;;;;;;;;5083237;28;20455;-72
2024/01/14 12:45:48;;;;;;;22.77;13.50;;;;;;;;;;5088343;28;20462;-71
2024/01/14 12:48:20;;;;;;;19.87;11.70;;;;;;;;;;5081600;28;20994;-69
2024/01/14 12:50:46;;;;;;;21.37;12.27;;;;;;;;;;5088405;28;20948;-66
2024/01/14 12:53:14;;;;;;;19.33;11.83;;;;;;;;;;5086288;28;20531;-66
2024/01/14 12:55:44;;;;;;;26.50;13.87;;;;;;;;;;5092528;28;20449;-66
2024/01/14 12:58:10;;;;;;;31.23;12.77;;;;;;;;;;5090751;28;20440;-68
2024/01/14 13:00:38;;;;;;;27.03;14.20;;;;;;;;;;5089298;28;20456;-74
2024/01/14 13:03:06;;;;;;;24.60;13.30;;;;;;;;;;5092409;28;20462;-67
2024/01/14 13:05:33;;;;;;;21.20;12.67;;;;;;;;;;5093780;28;20463;-67
2024/01/14 13:07:59;;;;;;;20.87;12.00;;;;;;;;;;5085348;28;20504;-69
2024/01/14 13:10:26;;;;;;;18.40;10.93;;;;;;;;;;5097536;28;20466;-70
2024/01/14 13:12:54;;;;;;;21.47;12.47;;;;;;;;;;5094018;28;20470;-68
2024/01/14 13:15:21;;;;;;;25.70;14.33;;;;;;;;;;5096824;28;20439;-71
2024/01/14 13:17:47;;;;;;;23.50;13.70;;;;;;;;;;5105133;28;20523;-69
2024/01/14 13:20:14;;;;;;;30.10;15.30;;;;;;;;;;5090889;28;20489;-67
2024/01/14 13:22:42;;;;;;;33.23;17.70;;;;;;;;;;5084184;28;20486;-72
2024/01/14 13:25:07;;;;;;;35.77;17.43;;;;;;;;;;5087057;28;21196;-69
2024/01/14 13:27:34;;;;;;;37.20;18.00;;;;;;;;;;5091407;28;20563;-67
2024/01/14 13:30:02;;;;;;;37.13;19.27;;;;;;;;;;5087816;28;20736;-67
2024/01/14 13:32:30;;;;;;;37.73;19.70;;;;;;;;;;5089465;28;20514;-67
2024/01/14 13:34:57;;;;;;;37.97;20.10;;;;;;;;;;5086532;28;20641;-67
2024/01/14 13:37:24;;;;;;;41.23;22.50;;;;;;;;;;5087897;28;20462;-67
2024/01/14 13:39:50;;;;;;;40.40;19.83;;;;;;;;;;5090904;28;20531;-66
2024/01/14 13:42:17;;;;;;;41.67;20.23;;;;;;;;;;5087914;28;20453;-68
2024/01/14 13:44:43;;;;;;;40.53;20.93;;;;;;;;;;5094827;28;20447;-68
2024/01/14 13:47:11;;;;;;;48.67;23.30;;;;;;;;;;5095815;28;20864;-66
2024/01/14 13:49:37;;;;;;;39.93;21.60;;;;;;;;;;5096140;28;20586;-68
2024/01/14 13:52:04;;;;;;;45.40;21.57;;;;;;;;;;5092831;28;20897;-68
2024/01/14 13:54:31;;;;;;;51.47;23.27;;;;;;;;;;5094836;28;20451;-68
2024/01/14 13:57:00;;;;;;;53.40;23.63;;;;;;;;;;5096363;28;20542;-68
2024/01/14 13:59:27;;;;;;;42.10;22.10;;;;;;;;;;5096916;28;20451;-68
2024/01/14 14:01:54;;;;;;;54.40;24.67;;;;;;;;;;5091544;28;20917;-68
2024/01/14 14:04:22;;;;;;;53.80;24.30;;;;;;;;;;5092782;28;20508;-68
2024/01/14 14:06:48;;;;;;;53.20;25.50;;;;;;;;;;5084860;28;20561;-68
2024/01/14 14:09:15;;;;;;;41.93;22.60;;;;;;;;;;5083941;28;20535;-68
2024/01/14 14:11:41;;;;;;;49.37;23.93;;;;;;;;;;5096670;28;20454;-68
2024/01/14 14:14:08;;;;;;;49.67;25.63;;;;;;;;;;5095654;28;20466;-67
2024/01/14 14:16:36;;;;;;;52.00;25.60;;;;;;;;;;5093308;28;20481;-68